createdAt,value
2022-11-26T00:00:02.255Z,44.20
2022-11-26T00:02:34.239Z,41.33
2022-11-26T00:05:04.024Z,43.10
2022-11-26T00:07:35.520Z,44.03
2022-11-26T00:10:07.029Z,44.97
2022-11-26T00:12:37.460Z,40.00
2022-11-26T00:15:17.504Z,47.37
2022-11-26T00:17:48.993Z,44.70
2022-11-26T00:20:19.382Z,43.03
2022-11-26T00:22:52.881Z,53.50
2022-11-26T00:25:24.737Z,49.07
2022-11-26T00:27:56.999Z,43.63
2022-11-26T00:30:28.535Z,44.93
2022-11-26T00:33:00.630Z,50.00
2022-11-26T00:35:30.233Z,42.83
2022-11-26T00:38:00.663Z,50.70
2022-11-26T00:40:38.248Z,45.20
2022-11-26T00:43:12.252Z,53.57
2022-11-26T00:45:42.145Z,43.70
2022-11-26T00:48:13.084Z,50.17
2022-11-26T00:50:44.778Z,44.63
2022-11-26T00:53:16.624Z,49.60
2022-11-26T00:55:48.400Z,51.10
2022-11-26T00:58:26.298Z,52.63
2022-11-26T01:00:56.878Z,49.93
2022-11-26T01:03:28.462Z,51.63
2022-11-26T01:06:00.826Z,45.10
2022-11-26T01:08:35.063Z,48.70
2022-11-26T01:11:07.127Z,50.03
2022-11-26T01:13:36.723Z,45.67
2022-11-26T01:16:20.406Z,46.37
2022-11-26T01:18:54.793Z,43.20
2022-11-26T01:21:26.340Z,42.30
2022-11-26T01:23:55.839Z,42.87
2022-11-26T01:26:27.987Z,41.50
2022-11-26T01:28:57.617Z,47.67
2022-11-26T01:31:29.014Z,39.13
2022-11-26T01:34:00.402Z,41.30
2022-11-26T01:36:31.556Z,45.53
2022-11-26T01:39:03.290Z,38.43
2022-11-26T01:41:46.343Z,38.27
2022-11-26T01:44:21.565Z,34.90
2022-11-26T01:46:52.526Z,36.13
2022-11-26T01:49:26.109Z,43.70
2022-11-26T01:52:03.176Z,39.30
2022-11-26T01:54:34.933Z,38.30
2022-11-26T01:57:10.173Z,37.90
2022-11-26T01:59:42.769Z,39.53
2022-11-26T02:02:13.107Z,36.07
2022-11-26T02:04:48.738Z,40.77
2022-11-26T02:07:18.255Z,36.93
2022-11-26T02:09:48.975Z,41.93
2022-11-26T02:12:19.199Z,35.77
2022-11-26T02:14:48.899Z,44.63
2022-11-26T02:17:28.871Z,34.73
2022-11-26T02:20:28.475Z,35.00
2022-11-26T02:23:32.896Z,33.73
2022-11-26T02:26:39.471Z,38.77
2022-11-26T02:29:25.570Z,36.33
2022-11-26T02:32:02.600Z,38.50
2022-11-26T02:34:41.072Z,35.20
2022-11-26T02:37:16.600Z,34.13
2022-11-26T02:39:46.103Z,36.27
2022-11-26T02:42:28.528Z,36.83
2022-11-26T02:45:01.188Z,32.17
2022-11-26T02:47:34.182Z,35.97
2022-11-26T02:50:08.701Z,32.23
2022-11-26T02:52:41.891Z,35.17
2022-11-26T02:55:13.726Z,34.47
2022-11-26T02:57:48.785Z,31.70
2022-11-26T03:00:19.422Z,34.40
2022-11-26T03:02:54.540Z,37.20
2022-11-26T03:05:24.046Z,37.97
2022-11-26T03:07:55.937Z,42.53
2022-11-26T03:10:29.103Z,36.80
2022-11-26T03:12:59.016Z,36.03
2022-11-26T03:15:28.422Z,36.63
2022-11-26T03:17:59.683Z,35.87
2022-11-26T03:20:29.474Z,31.33
2022-11-26T03:22:58.971Z,29.90
2022-11-26T03:25:28.557Z,30.37
2022-11-26T03:27:58.187Z,34.03
2022-11-26T03:30:27.697Z,26.27
2022-11-26T03:32:58.849Z,34.20
2022-11-26T03:35:28.450Z,33.00
2022-11-26T03:37:57.962Z,33.37
2022-11-26T03:40:27.767Z,31.97
2022-11-26T03:42:57.273Z,31.73
2022-11-26T03:45:26.775Z,41.03
2022-11-26T03:47:56.060Z,39.43
2022-11-26T03:50:27.206Z,40.97
2022-11-26T03:52:56.611Z,44.40
2022-11-26T03:55:26.225Z,39.97
2022-11-26T03:57:55.627Z,42.37
2022-11-26T04:00:25.234Z,44.20
2022-11-26T04:02:54.843Z,52.53
2022-11-26T04:05:24.434Z,47.00
2022-11-26T04:07:55.464Z,52.23
2022-11-26T04:10:25.909Z,50.00
2022-11-26T04:12:55.313Z,48.53
2022-11-26T04:15:24.719Z,51.67
2022-11-26T04:17:54.229Z,54.10
2022-11-26T04:20:23.937Z,50.37
2022-11-26T04:22:55.274Z,43.73
2022-11-26T04:25:24.725Z,46.10
2022-11-26T04:27:54.490Z,50.53
2022-11-26T04:30:23.986Z,41.20
2022-11-26T04:32:53.403Z,39.10
2022-11-26T04:35:22.904Z,32.73
2022-11-26T04:37:52.514Z,32.10
2022-11-26T04:40:23.551Z,34.07
2022-11-26T04:42:53.154Z,34.23
2022-11-26T04:45:22.771Z,30.87
2022-11-26T04:47:52.270Z,35.33
2022-11-26T04:50:22.174Z,33.97
2022-11-26T04:52:51.697Z,30.37
2022-11-26T04:55:22.846Z,29.70
2022-11-26T04:57:52.446Z,29.77
2022-11-26T05:00:22.760Z,41.17
2022-11-26T05:02:52.297Z,39.53
2022-11-26T05:05:22.097Z,41.40
2022-11-26T05:07:51.633Z,36.53
2022-11-26T05:10:22.831Z,35.47
2022-11-26T05:12:52.361Z,38.83
2022-11-26T05:15:23.372Z,34.27
2022-11-26T05:17:53.000Z,30.93
2022-11-26T05:20:22.580Z,33.60
2022-11-26T05:22:52.298Z,31.47
2022-11-26T05:25:23.452Z,29.13
2022-11-26T05:27:53.156Z,28.23
2022-11-26T05:30:23.269Z,26.80
2022-11-26T05:32:52.872Z,30.83
2022-11-26T05:35:22.574Z,28.17
2022-11-26T05:37:52.091Z,28.63
2022-11-26T05:40:23.223Z,32.60
2022-11-26T05:42:52.528Z,26.00
2022-11-26T05:45:22.438Z,28.70
2022-11-26T05:47:52.350Z,27.57
2022-11-26T05:50:21.971Z,24.17
2022-11-26T05:52:51.473Z,28.17
2022-11-26T05:55:23.432Z,25.57
2022-11-26T05:57:52.837Z,29.30
2022-11-26T06:00:22.540Z,29.80
2022-11-26T06:02:52.218Z,29.20
2022-11-26T06:05:21.740Z,23.70
2022-11-26T06:07:51.727Z,30.57
2022-11-26T06:10:23.422Z,29.80
2022-11-26T06:12:52.940Z,29.23
2022-11-26T06:15:22.350Z,29.20
2022-11-26T06:17:52.141Z,25.17
2022-11-26T06:20:21.848Z,30.20
2022-11-26T06:22:51.459Z,32.00
2022-11-26T06:25:20.965Z,29.73
2022-11-26T06:27:52.716Z,31.53
2022-11-26T06:30:22.431Z,32.80
2022-11-26T06:32:52.030Z,31.77
2022-11-26T06:35:21.643Z,30.83
2022-11-26T06:37:51.659Z,26.47
2022-11-26T06:40:22.384Z,27.20
2022-11-26T06:42:54.669Z,24.17
2022-11-26T06:45:25.121Z,24.63
2022-11-26T06:47:55.426Z,26.23
2022-11-26T06:50:25.530Z,29.83
2022-11-26T06:52:55.745Z,30.23
2022-11-26T06:55:25.259Z,32.97
2022-11-26T06:57:56.412Z,29.73
2022-11-26T07:00:25.329Z,25.77
2022-11-26T07:02:54.198Z,24.53
2022-11-26T07:05:22.911Z,26.87
2022-11-26T07:07:51.629Z,22.37
2022-11-26T07:10:20.457Z,22.50
2022-11-26T07:12:49.179Z,25.50
2022-11-26T07:15:19.640Z,27.97
2022-11-26T07:17:48.809Z,30.57
2022-11-26T07:20:18.053Z,32.30
2022-11-26T07:23:03.178Z,28.13
2022-11-26T07:25:32.562Z,29.27
2022-11-26T07:28:01.205Z,28.90
2022-11-26T07:30:31.273Z,30.40
2022-11-26T07:33:00.950Z,24.77
2022-11-26T07:35:29.553Z,24.97
2022-11-26T07:37:58.635Z,26.47
2022-11-26T07:40:27.523Z,25.40
2022-11-26T07:42:56.095Z,27.63
2022-11-26T07:45:24.739Z,24.73
2022-11-26T07:47:54.851Z,24.90
2022-11-26T07:50:23.585Z,38.07
2022-11-26T07:52:53.865Z,60.20
2022-11-26T07:55:22.584Z,43.07
2022-11-26T07:57:51.326Z,47.10
2022-11-26T08:00:21.171Z,49.10
2022-11-26T08:02:49.890Z,70.20
2022-11-26T08:05:20.183Z,86.20
2022-11-26T08:07:48.968Z,30.30
2022-11-26T08:10:17.861Z,20.67
2022-11-26T08:12:51.277Z,18.53
2022-11-26T08:15:21.470Z,22.03
2022-11-26T08:17:50.090Z,19.20
2022-11-26T08:20:23.334Z,17.53
2022-11-26T08:22:56.200Z,13.90
2022-11-26T08:25:24.780Z,20.13
2022-11-26T08:27:53.483Z,19.30
2022-11-26T08:30:22.302Z,21.97
2022-11-26T08:32:50.921Z,20.40
2022-11-26T08:35:20.952Z,19.97
2022-11-26T08:37:49.639Z,18.43
2022-11-26T08:40:18.444Z,18.73
2022-11-26T08:42:47.103Z,38.57
2022-11-26T08:45:15.852Z,21.37
2022-11-26T08:47:44.657Z,18.03
2022-11-26T08:50:14.914Z,23.77
2022-11-26T08:52:45.115Z,23.30
2022-11-26T08:55:13.840Z,19.57
2022-11-26T08:57:42.661Z,14.47
2022-11-26T09:00:12.441Z,17.97
2022-11-26T09:02:41.074Z,13.73
2022-11-26T09:05:10.386Z,17.30
2022-11-26T09:07:39.203Z,17.90
2022-11-26T09:10:10.925Z,15.50
2022-11-26T09:12:40.520Z,16.40
2022-11-26T09:15:10.741Z,12.30
2022-11-26T09:17:39.365Z,12.50
2022-11-26T09:20:09.699Z,13.70
2022-11-26T09:22:39.664Z,10.90
2022-11-26T09:25:11.002Z,11.50
2022-11-26T09:27:39.739Z,11.23
2022-11-26T09:30:09.547Z,15.90
2022-11-26T09:32:39.148Z,11.00
2022-11-26T09:35:09.710Z,13.93
2022-11-26T09:37:39.029Z,9.93
2022-11-26T09:40:11.803Z,8.30
2022-11-26T09:42:51.654Z,10.23
2022-11-26T09:45:34.405Z,9.30
2022-11-26T09:48:05.974Z,9.37
2022-11-26T09:50:38.737Z,8.43
2022-11-26T09:53:16.408Z,8.30
2022-11-26T09:55:50.481Z,7.33
2022-11-26T09:58:27.533Z,6.33
2022-11-26T10:00:58.946Z,7.50
2022-11-26T10:03:33.531Z,6.43
2022-11-26T10:06:06.964Z,7.30
2022-11-26T10:09:02.968Z,5.37
2022-11-26T10:11:41.921Z,14.80
2022-11-26T10:14:26.803Z,8.40
2022-11-26T10:17:10.298Z,7.70
2022-11-26T10:19:51.937Z,8.43
2022-11-26T10:22:24.663Z,8.40
2022-11-26T10:24:54.382Z,8.30
2022-11-26T10:27:31.301Z,9.30
2022-11-26T10:30:03.394Z,9.27
2022-11-26T10:32:38.226Z,8.40
2022-11-26T10:35:07.967Z,8.70
2022-11-26T10:37:36.767Z,9.40
2022-11-26T10:40:19.915Z,9.67
2022-11-26T10:43:01.297Z,10.60
2022-11-26T10:45:39.033Z,9.93
2022-11-26T10:48:18.384Z,10.63
2022-11-26T10:50:57.986Z,9.30
2022-11-26T10:53:28.476Z,10.20
2022-11-26T10:56:00.606Z,9.60
2022-11-26T10:58:38.882Z,9.60
2022-11-26T11:01:08.837Z,13.70
2022-11-26T11:04:09.455Z,13.57
2022-11-26T11:06:45.202Z,14.07
2022-11-26T11:09:38.358Z,15.73
2022-11-26T11:12:22.559Z,15.40
2022-11-26T11:14:53.900Z,16.73
2022-11-26T11:17:35.698Z,16.67
2022-11-26T11:20:28.713Z,17.60
2022-11-26T11:23:07.854Z,17.17
2022-11-26T11:25:38.468Z,19.37
2022-11-26T11:28:15.699Z,18.97
2022-11-26T11:30:47.289Z,19.73
2022-11-26T11:33:23.594Z,18.23
2022-11-26T11:36:04.972Z,20.57
2022-11-26T11:38:36.353Z,21.27
2022-11-26T11:41:13.048Z,22.20
2022-11-26T11:43:42.481Z,22.00
2022-11-26T11:46:36.434Z,22.17
2022-11-26T11:49:19.815Z,24.23
2022-11-26T11:52:01.976Z,28.27
2022-11-26T11:54:37.516Z,26.27
2022-11-26T11:57:15.160Z,26.90
2022-11-26T12:00:13.647Z,27.33
2022-11-26T12:03:14.232Z,25.37
2022-11-26T12:06:00.200Z,27.13
2022-11-26T12:08:41.004Z,35.03
2022-11-26T12:11:24.648Z,34.60
2022-11-26T12:13:57.748Z,26.23
2022-11-26T12:16:30.368Z,27.73
2022-11-26T12:19:04.591Z,31.67
2022-11-26T12:21:40.984Z,31.20
2022-11-26T12:24:15.628Z,33.70
2022-11-26T12:26:49.346Z,30.50
2022-11-26T12:29:24.075Z,28.40
2022-11-26T12:31:57.494Z,29.17
2022-11-26T12:34:33.702Z,25.43
2022-11-26T12:37:05.272Z,27.50
2022-11-26T12:39:41.273Z,27.73
2022-11-26T12:42:18.296Z,26.10
2022-11-26T12:44:52.192Z,24.17
2022-11-26T12:47:26.346Z,25.17
2022-11-26T12:50:08.585Z,23.40
2022-11-26T12:52:56.120Z,24.80
2022-11-26T12:55:29.831Z,25.00
2022-11-26T12:58:03.577Z,24.63
2022-11-26T13:00:36.722Z,25.20
2022-11-26T13:03:08.052Z,26.30
2022-11-26T13:05:51.627Z,26.33
2022-11-26T13:08:34.769Z,25.93
2022-11-26T13:11:19.179Z,27.83
2022-11-26T13:13:55.135Z,27.80
2022-11-26T13:16:29.839Z,26.67
2022-11-26T13:19:06.705Z,26.27
2022-11-26T13:22:14.309Z,27.07
2022-11-26T13:24:58.147Z,28.13
2022-11-26T13:27:39.678Z,27.10
2022-11-26T13:30:21.379Z,28.00
2022-11-26T13:33:14.882Z,28.13
2022-11-26T13:36:24.242Z,28.17
2022-11-26T13:39:06.549Z,26.43
2022-11-26T13:42:11.305Z,25.63
2022-11-26T13:45:13.211Z,26.03
2022-11-26T13:47:46.917Z,26.00
2022-11-26T13:50:19.265Z,24.37
2022-11-26T13:52:52.545Z,26.37
2022-11-26T13:55:25.667Z,28.23
2022-11-26T13:57:59.486Z,26.30
2022-11-26T14:00:32.589Z,28.23
2022-11-26T14:03:03.073Z,28.70
2022-11-26T14:06:07.990Z,30.70
2022-11-26T14:08:39.885Z,27.63
2022-11-26T14:11:10.308Z,30.37
2022-11-26T14:13:41.189Z,28.67
2022-11-26T14:16:10.826Z,31.30
2022-11-26T14:19:01.003Z,29.63
2022-11-26T14:21:31.474Z,30.90
2022-11-26T14:24:02.018Z,30.63
2022-11-26T14:26:34.621Z,31.53
2022-11-26T14:29:14.171Z,35.40
2022-11-26T14:31:50.420Z,44.50
2022-11-26T14:34:25.478Z,36.77
2022-11-26T14:36:57.268Z,33.73
2022-11-26T14:39:26.762Z,35.87
2022-11-26T14:42:01.932Z,35.47
2022-11-26T14:44:35.661Z,35.27
2022-11-26T14:47:12.762Z,33.80
2022-11-26T14:49:44.165Z,38.83
2022-11-26T14:52:21.363Z,33.70
2022-11-26T14:54:53.719Z,34.87
2022-11-26T14:57:27.754Z,35.10
2022-11-26T15:00:03.441Z,35.03
2022-11-26T15:02:33.125Z,33.67
2022-11-26T15:05:04.139Z,34.67
2022-11-26T15:07:33.743Z,32.23
2022-11-26T15:10:04.682Z,34.97
2022-11-26T15:12:36.650Z,32.90
2022-11-26T15:15:11.918Z,29.70
2022-11-26T15:17:44.726Z,30.90
2022-11-26T15:20:17.078Z,30.67
2022-11-26T15:22:51.557Z,30.80
2022-11-26T15:25:22.653Z,31.23
2022-11-26T15:27:59.955Z,36.00
2022-11-26T15:30:37.310Z,36.93
2022-11-26T15:33:15.200Z,34.33
2022-11-26T15:35:46.654Z,36.47
2022-11-26T15:38:19.750Z,36.77
2022-11-26T15:40:57.450Z,36.47
2022-11-26T15:43:33.971Z,35.53
2022-11-26T15:46:15.112Z,36.30
2022-11-26T15:48:52.789Z,34.27
2022-11-26T15:51:35.991Z,33.67
2022-11-26T15:54:09.804Z,36.67
2022-11-26T15:56:41.958Z,33.57
2022-11-26T15:59:17.427Z,36.57
2022-11-26T16:01:48.916Z,41.23
2022-11-26T16:04:44.769Z,39.83
2022-11-26T16:07:15.960Z,34.83
2022-11-26T16:09:45.478Z,39.63
2022-11-26T16:12:32.741Z,41.47
2022-11-26T16:15:14.840Z,41.97
2022-11-26T16:17:47.334Z,42.50
2022-11-26T16:20:21.262Z,37.37
2022-11-26T16:22:52.002Z,35.80
2022-11-26T16:25:27.020Z,38.37
2022-11-26T16:28:06.956Z,35.80
2022-11-26T16:30:36.373Z,38.33
2022-11-26T16:33:07.801Z,40.53
2022-11-26T16:35:46.405Z,42.37
2022-11-26T16:38:22.209Z,44.03
2022-11-26T16:40:52.082Z,49.57
2022-11-26T16:43:21.273Z,43.40
2022-11-26T16:45:51.656Z,42.97
2022-11-26T16:48:26.023Z,44.60
2022-11-26T16:50:56.254Z,46.43
2022-11-26T16:53:25.272Z,44.53
2022-11-26T16:55:55.035Z,49.20
2022-11-26T16:58:30.643Z,42.03
2022-11-26T17:00:59.948Z,44.70
2022-11-26T17:03:33.352Z,47.20
2022-11-26T17:06:05.834Z,39.77
2022-11-26T17:08:36.554Z,43.77
2022-11-26T17:11:07.429Z,46.70
2022-11-26T17:13:36.760Z,51.13
2022-11-26T17:16:05.681Z,47.13
2022-11-26T17:18:35.980Z,46.97
2022-11-26T17:21:05.367Z,57.10
2022-11-26T17:23:34.408Z,58.07
2022-11-26T17:26:04.633Z,46.57
2022-11-26T17:28:34.572Z,58.70
2022-11-26T17:31:03.739Z,59.73
2022-11-26T17:33:32.830Z,69.67
2022-11-26T17:36:03.966Z,70.10
2022-11-26T17:38:33.173Z,64.47
2022-11-26T17:41:01.857Z,60.00
2022-11-26T17:43:30.805Z,61.27
2022-11-26T17:46:01.921Z,75.10
2022-11-26T17:48:30.815Z,73.50
2022-11-26T17:50:59.707Z,66.13
2022-11-26T17:53:29.981Z,72.20
2022-11-26T17:55:58.636Z,65.20
2022-11-26T17:58:29.686Z,69.27
2022-11-26T18:00:59.788Z,67.80
2022-11-26T18:03:31.710Z,68.60
2022-11-26T18:06:00.394Z,68.50
2022-11-26T18:08:31.395Z,63.03
2022-11-26T18:11:00.972Z,60.80
2022-11-26T18:13:30.129Z,63.90
2022-11-26T18:16:00.657Z,69.43
2022-11-26T18:18:29.964Z,75.03
2022-11-26T18:20:58.693Z,64.07
2022-11-26T18:23:38.509Z,68.97
2022-11-26T18:26:18.343Z,70.20
2022-11-26T18:28:48.019Z,68.83
2022-11-26T18:31:17.321Z,73.37
2022-11-26T18:33:46.878Z,74.27
2022-11-26T18:36:16.681Z,77.43
2022-11-26T18:38:46.939Z,79.37
2022-11-26T18:41:16.181Z,83.80
2022-11-26T18:43:45.177Z,83.20
2022-11-26T18:46:17.697Z,92.80
2022-11-26T18:48:48.424Z,85.87
2022-11-26T18:51:18.629Z,87.03
2022-11-26T18:53:48.900Z,85.77
2022-11-26T18:56:19.658Z,82.30
2022-11-26T18:58:48.478Z,92.17
2022-11-26T19:01:20.785Z,84.93
2022-11-26T19:03:49.945Z,87.60
2022-11-26T19:06:21.262Z,79.43
2022-11-26T19:08:52.715Z,86.67
2022-11-26T19:11:22.984Z,84.00
2022-11-26T19:13:52.059Z,81.30
2022-11-26T19:16:22.292Z,80.80
2022-11-26T19:18:52.023Z,85.13
2022-11-26T19:21:23.937Z,79.37
2022-11-26T19:23:56.536Z,81.67
2022-11-26T19:26:26.262Z,86.73
2022-11-26T19:28:55.296Z,87.43
2022-11-26T19:31:27.547Z,81.07
2022-11-26T19:33:58.790Z,78.40
2022-11-26T19:36:31.397Z,86.57
2022-11-26T19:39:06.110Z,78.37
2022-11-26T19:41:35.724Z,85.57
2022-11-26T19:44:07.652Z,85.23
2022-11-26T19:46:42.466Z,92.87
2022-11-26T19:49:17.529Z,100.20
2022-11-26T19:51:47.146Z,90.80
2022-11-26T19:54:17.947Z,89.63
2022-11-26T19:56:50.007Z,91.93
2022-11-26T19:59:20.462Z,84.27
2022-11-26T20:01:49.966Z,83.90
2022-11-26T20:04:24.659Z,94.43
2022-11-26T20:06:56.134Z,97.57
2022-11-26T20:09:27.185Z,94.47
2022-11-26T20:11:57.982Z,87.43
2022-11-26T20:14:27.911Z,84.50
2022-11-26T20:17:11.000Z,86.87
2022-11-26T20:19:49.570Z,87.30
2022-11-26T20:22:19.554Z,88.90
2022-11-26T20:24:50.934Z,74.47
2022-11-26T20:27:24.895Z,82.40
2022-11-26T20:29:54.464Z,79.80
2022-11-26T20:32:33.453Z,79.13
2022-11-26T20:35:03.238Z,82.13
2022-11-26T20:37:32.394Z,90.00
2022-11-26T20:40:04.196Z,83.93
2022-11-26T20:42:35.222Z,74.10
2022-11-26T20:45:04.587Z,76.93
2022-11-26T20:47:33.846Z,74.80
2022-11-26T20:50:03.289Z,78.97
2022-11-26T20:52:34.604Z,70.33
2022-11-26T20:55:06.375Z,68.93
2022-11-26T20:57:37.786Z,67.63
2022-11-26T21:00:08.905Z,72.13
2022-11-26T21:02:40.656Z,75.40
2022-11-26T21:05:10.666Z,66.57
2022-11-26T21:07:40.697Z,63.20
2022-11-26T21:10:12.083Z,67.27
2022-11-26T21:12:41.221Z,70.60
2022-11-26T21:15:12.100Z,72.50
2022-11-26T21:17:40.986Z,71.50
2022-11-26T21:20:11.284Z,73.87
2022-11-26T21:22:40.947Z,63.00
2022-11-26T21:25:12.654Z,71.93
2022-11-26T21:27:41.618Z,74.77
2022-11-26T21:30:11.606Z,70.33
2022-11-26T21:32:40.705Z,66.90
2022-11-26T21:35:10.671Z,55.77
2022-11-26T21:37:39.371Z,56.10
2022-11-26T21:40:11.377Z,60.10
2022-11-26T21:42:42.136Z,66.63
2022-11-26T21:45:11.704Z,56.10
2022-11-26T21:47:40.657Z,57.53
2022-11-26T21:50:11.080Z,57.60
2022-11-26T21:52:40.094Z,56.93
2022-11-26T21:55:11.802Z,56.40
2022-11-26T21:57:40.527Z,49.83
2022-11-26T22:00:11.691Z,52.87
2022-11-26T22:02:41.098Z,53.63
2022-11-26T22:05:10.170Z,51.47
2022-11-26T22:07:46.897Z,46.10
2022-11-26T22:10:19.149Z,45.43
2022-11-26T22:12:50.417Z,48.07
2022-11-26T22:15:24.381Z,44.90
2022-11-26T22:17:53.190Z,48.40
2022-11-26T22:20:22.124Z,40.50
2022-11-26T22:22:51.312Z,45.60
2022-11-26T22:25:24.411Z,51.93
2022-11-26T22:27:54.352Z,44.87
2022-11-26T22:30:24.804Z,54.23
2022-11-26T22:32:54.260Z,50.20
2022-11-26T22:35:23.216Z,49.40
2022-11-26T22:37:52.285Z,47.17
2022-11-26T22:40:23.296Z,52.40
2022-11-26T22:42:55.461Z,49.57
2022-11-26T22:45:32.019Z,49.80
2022-11-26T22:48:08.752Z,47.27
2022-11-26T22:50:38.736Z,51.37
2022-11-26T22:53:08.892Z,50.23
2022-11-26T22:55:42.085Z,50.37
2022-11-26T22:58:12.000Z,51.83
2022-11-26T23:00:51.492Z,57.20
2022-11-26T23:03:21.322Z,61.70
2022-11-26T23:05:50.219Z,48.67
2022-11-26T23:08:19.066Z,53.37
2022-11-26T23:10:49.832Z,60.57
2022-11-26T23:13:18.978Z,54.00
2022-11-26T23:15:48.109Z,56.90
2022-11-26T23:18:18.203Z,51.57
2022-11-26T23:20:47.493Z,57.90
2022-11-26T23:23:16.226Z,56.17
2022-11-26T23:25:45.148Z,54.83
2022-11-26T23:28:15.265Z,53.47
2022-11-26T23:30:44.056Z,52.57
2022-11-26T23:33:12.764Z,56.77
2022-11-26T23:35:43.908Z,59.33
2022-11-26T23:38:12.636Z,62.97
2022-11-26T23:40:41.424Z,66.63
2022-11-26T23:43:10.207Z,60.67
2022-11-26T23:45:40.453Z,55.00
2022-11-26T23:48:09.109Z,52.50
2022-11-26T23:50:40.005Z,51.33
2022-11-26T23:53:08.899Z,49.20
2022-11-26T23:55:37.636Z,54.77
2022-11-26T23:58:06.478Z,51.17
